createdAt,value
2018-05-21T00:01:26.312Z,12.40
2018-05-21T00:03:53.860Z,12.40
2018-05-21T00:06:21.420Z,12.40
2018-05-21T00:08:48.970Z,12.40
2018-05-21T00:11:17.403Z,12.40
2018-05-21T00:13:44.936Z,12.30
2018-05-21T00:16:12.497Z,12.30
2018-05-21T00:18:40.045Z,12.30
2018-05-21T00:21:07.608Z,12.30
2018-05-21T00:23:35.143Z,12.20
2018-05-21T00:26:02.704Z,12.20
2018-05-21T00:28:30.232Z,12.20
2018-05-21T00:30:58.556Z,12.20
2018-05-21T00:33:26.101Z,12.20
2018-05-21T00:35:53.661Z,12.20
2018-05-21T00:38:21.213Z,12.20
2018-05-21T00:40:48.760Z,12.20
2018-05-21T00:43:16.311Z,12.20
2018-05-21T00:45:44.516Z,12.20
2018-05-21T00:48:12.041Z,12.20
2018-05-21T00:50:39.568Z,12.20
2018-05-21T00:53:07.112Z,12.10
2018-05-21T00:55:38.201Z,12.10
2018-05-21T00:58:05.757Z,12.10
2018-05-21T01:00:34.067Z,12.10
2018-05-21T01:03:01.620Z,12.10
2018-05-21T01:05:29.179Z,12.10
2018-05-21T01:07:56.739Z,12.00
2018-05-21T01:10:24.285Z,12.00
2018-05-21T01:12:51.829Z,11.90
2018-05-21T01:15:19.368Z,11.90
2018-05-21T01:17:47.700Z,11.80
2018-05-21T01:20:15.219Z,11.80
2018-05-21T01:22:43.546Z,11.70
2018-05-21T01:25:11.085Z,11.60
2018-05-21T01:27:38.642Z,11.60
2018-05-21T01:30:06.176Z,11.50
2018-05-21T01:32:33.757Z,11.50
2018-05-21T01:35:01.317Z,11.40
2018-05-21T01:37:28.887Z,11.40
2018-05-21T01:39:56.434Z,11.30
2018-05-21T01:42:23.976Z,11.30
2018-05-21T01:44:51.559Z,11.20
2018-05-21T01:47:19.095Z,11.10
2018-05-21T01:49:46.637Z,11.10
2018-05-21T01:52:14.944Z,11.00
2018-05-21T01:54:42.492Z,11.00
2018-05-21T01:57:10.033Z,10.90
2018-05-21T01:59:38.360Z,10.90
2018-05-21T02:02:05.892Z,10.90
2018-05-21T02:04:33.432Z,10.80
2018-05-21T02:07:00.980Z,10.80
2018-05-21T02:09:29.280Z,10.70
2018-05-21T02:11:56.822Z,10.70
2018-05-21T02:14:24.412Z,10.70
2018-05-21T02:16:51.948Z,10.70
2018-05-21T02:19:19.501Z,10.60
2018-05-21T02:21:47.037Z,10.60
2018-05-21T02:24:14.575Z,10.60
2018-05-21T02:26:42.629Z,10.60
2018-05-21T02:29:10.177Z,10.60
2018-05-21T02:31:37.713Z,10.50
2018-05-21T02:34:05.256Z,10.50
2018-05-21T02:36:33.161Z,10.50
2018-05-21T02:39:00.716Z,10.50
2018-05-21T02:41:28.245Z,10.40
2018-05-21T02:43:56.605Z,10.40
2018-05-21T02:46:24.124Z,10.30
2018-05-21T02:48:51.673Z,10.30
2018-05-21T02:51:19.222Z,10.30
2018-05-21T02:53:46.762Z,10.30
2018-05-21T02:56:14.300Z,10.20
2018-05-21T02:58:42.625Z,10.20
2018-05-21T03:01:11.446Z,10.20
2018-05-21T03:03:39.010Z,10.10
2018-05-21T03:06:06.531Z,10.10
2018-05-21T03:08:34.080Z,10.10
2018-05-21T03:11:01.668Z,10.10
2018-05-21T03:13:29.204Z,10.00
2018-05-21T03:15:56.768Z,10.00
2018-05-21T03:18:24.317Z,10.00
2018-05-21T03:20:53.345Z,9.90
2018-05-21T03:23:20.875Z,9.90
2018-05-21T03:25:48.419Z,9.90
2018-05-21T03:28:15.952Z,9.80
2018-05-21T03:30:44.769Z,9.80
2018-05-21T03:33:12.300Z,9.80
2018-05-21T03:35:39.868Z,9.80
2018-05-21T03:38:07.401Z,9.80
2018-05-21T03:40:35.347Z,9.80
2018-05-21T03:43:02.884Z,9.70
2018-05-21T03:45:30.444Z,9.70
2018-05-21T03:47:57.984Z,9.70
2018-05-21T03:50:25.534Z,9.60
2018-05-21T03:52:53.051Z,9.60
2018-05-21T03:55:20.617Z,9.60
2018-05-21T03:57:48.149Z,9.60
2018-05-21T04:00:28.141Z,9.50
2018-05-21T04:05:59.779Z,9.60
2018-05-21T04:08:27.358Z,9.60
2018-05-21T04:10:54.842Z,9.60
2018-05-21T04:13:22.384Z,9.60
2018-05-21T04:15:49.932Z,9.60
2018-05-21T04:18:17.466Z,9.60
2018-05-21T04:20:45.009Z,9.70
2018-05-21T04:23:12.536Z,9.70
2018-05-21T04:25:40.170Z,9.70
2018-05-21T04:28:07.623Z,9.70
2018-05-21T04:30:35.197Z,9.80
2018-05-21T04:33:03.562Z,9.80
2018-05-21T04:35:31.111Z,9.80
2018-05-21T04:37:58.657Z,9.80
2018-05-21T04:40:26.189Z,9.80
2018-05-21T04:42:53.722Z,9.90
2018-05-21T04:45:21.260Z,9.90
2018-05-21T04:47:49.567Z,9.90
2018-05-21T04:50:17.094Z,9.90
2018-05-21T04:52:44.647Z,10.00
2018-05-21T04:55:12.173Z,10.00
2018-05-21T04:57:40.494Z,10.60
2018-05-21T05:00:08.832Z,11.10
2018-05-21T05:02:37.628Z,11.70
2018-05-21T05:05:05.208Z,11.70
2018-05-21T05:07:32.798Z,12.30
2018-05-21T05:10:00.355Z,12.80
2018-05-21T05:12:28.682Z,13.40
2018-05-21T05:14:56.226Z,13.40
2018-05-21T05:17:24.538Z,13.70
2018-05-21T05:19:52.891Z,14.00
2018-05-21T05:22:20.440Z,14.00
2018-05-21T05:24:48.006Z,14.50
2018-05-21T05:27:16.398Z,15.10
2018-05-21T05:29:43.932Z,15.10
2018-05-21T05:32:11.492Z,15.50
2018-05-21T05:34:39.796Z,16.20
2018-05-21T05:37:07.345Z,16.20
2018-05-21T05:39:34.900Z,16.60
2018-05-21T05:42:02.591Z,17.00
2018-05-21T05:44:30.121Z,17.40
2018-05-21T05:46:58.422Z,18.10
2018-05-21T05:49:26.735Z,18.70
2018-05-21T05:51:54.278Z,18.80
2018-05-21T05:54:21.858Z,19.20
2018-05-21T05:56:49.401Z,19.00
2018-05-21T05:59:16.934Z,19.30
2018-05-21T06:01:45.197Z,19.40
2018-05-21T06:04:12.744Z,19.60
2018-05-21T06:06:41.032Z,19.90
2018-05-21T06:09:08.569Z,19.80
2018-05-21T06:11:36.137Z,19.80
2018-05-21T06:14:03.718Z,20.00
2018-05-21T06:16:31.256Z,19.80
2018-05-21T06:18:58.799Z,19.80
2018-05-21T06:21:26.331Z,19.70
2018-05-21T06:23:53.871Z,20.00
2018-05-21T06:26:21.444Z,19.90
2018-05-21T06:28:48.977Z,19.90
2018-05-21T06:31:16.516Z,19.70
2018-05-21T06:33:44.052Z,20.00
2018-05-21T06:36:11.580Z,20.10
2018-05-21T06:38:39.117Z,20.10
2018-05-21T06:41:06.781Z,20.20
2018-05-21T06:43:35.048Z,20.70
2018-05-21T06:46:02.606Z,20.70
2018-05-21T06:48:30.907Z,20.70
2018-05-21T06:50:59.216Z,20.40
2018-05-21T06:53:27.518Z,20.50
2018-05-21T06:55:55.829Z,20.30
2018-05-21T06:58:24.124Z,20.20
2018-05-21T07:00:51.665Z,20.20
2018-05-21T07:03:19.192Z,20.50
2018-05-21T07:05:47.510Z,20.80
2018-05-21T07:08:15.040Z,20.80
2018-05-21T07:10:42.583Z,21.10
2018-05-21T07:13:10.877Z,21.10
2018-05-21T07:15:38.425Z,21.10
2018-05-21T07:18:06.055Z,21.10
2018-05-21T07:20:33.639Z,21.10
2018-05-21T07:23:01.183Z,21.00
2018-05-21T07:25:28.734Z,20.70
2018-05-21T07:27:56.393Z,20.70
2018-05-21T07:30:23.920Z,21.20
2018-05-21T07:32:51.479Z,21.40
2018-05-21T07:35:19.005Z,21.70
2018-05-21T07:37:46.544Z,21.70
2018-05-21T07:40:14.096Z,21.90
2018-05-21T07:42:42.395Z,21.40
2018-05-21T07:45:10.703Z,21.60
2018-05-21T07:47:38.239Z,21.50
2018-05-21T07:50:05.817Z,21.80
2018-05-21T07:52:33.415Z,21.90
2018-05-21T07:55:01.794Z,21.60
2018-05-21T07:57:29.383Z,21.60
2018-05-21T07:59:56.908Z,21.70
2018-05-21T08:02:24.445Z,22.10
2018-05-21T08:04:52.002Z,21.80
2018-05-21T08:07:19.562Z,22.00
2018-05-21T08:09:47.865Z,21.80
2018-05-21T08:12:16.169Z,22.20
2018-05-21T08:14:44.494Z,22.70
2018-05-21T08:17:12.771Z,23.50
2018-05-21T08:19:40.290Z,23.50
2018-05-21T08:22:07.902Z,23.70
2018-05-21T08:24:35.417Z,23.80
2018-05-21T08:27:03.745Z,23.60
2018-05-21T08:29:31.276Z,23.60
2018-05-21T08:31:58.825Z,23.40
2018-05-21T08:34:26.357Z,22.90
2018-05-21T08:36:53.906Z,23.30
2018-05-21T08:39:21.446Z,23.40
2018-05-21T08:41:49.768Z,22.90
2018-05-21T08:44:17.314Z,22.90
2018-05-21T08:46:44.861Z,22.30
2018-05-21T08:49:12.401Z,21.80
2018-05-21T08:51:40.704Z,21.70
2018-05-21T08:54:09.013Z,22.10
2018-05-21T08:56:37.384Z,22.10
2018-05-21T08:59:04.877Z,22.10
2018-05-21T09:01:32.416Z,22.20
2018-05-21T09:03:59.956Z,22.40
2018-05-21T09:06:28.265Z,22.90
2018-05-21T09:08:55.815Z,22.90
2018-05-21T09:11:23.350Z,23.30
2018-05-21T09:13:50.888Z,23.70
2018-05-21T09:16:18.457Z,24.20
2018-05-21T09:18:45.962Z,24.40
2018-05-21T09:21:13.507Z,24.10
2018-05-21T09:23:41.046Z,24.10
2018-05-21T09:26:09.456Z,24.80
2018-05-21T09:28:41.429Z,24.80
2018-05-21T09:31:08.948Z,24.80
2018-05-21T09:33:36.504Z,24.50
2018-05-21T09:36:04.460Z,24.20
2018-05-21T09:38:32.012Z,24.00
2018-05-21T09:40:59.539Z,24.40
2018-05-21T09:43:27.086Z,25.40
2018-05-21T09:45:54.613Z,26.00
2018-05-21T09:48:22.152Z,25.60
2018-05-21T09:50:49.714Z,25.90
2018-05-21T09:53:17.248Z,26.40
2018-05-21T09:55:45.672Z,27.20
2018-05-21T09:58:13.213Z,27.60
2018-05-21T10:00:40.748Z,27.80
2018-05-21T10:03:08.299Z,28.10
2018-05-21T10:05:35.865Z,28.20
2018-05-21T10:08:03.487Z,28.40
2018-05-21T10:10:31.030Z,27.60
2018-05-21T10:12:58.588Z,28.00
2018-05-21T10:15:26.890Z,28.30
2018-05-21T10:17:54.465Z,28.30
2018-05-21T10:20:22.811Z,28.30
2018-05-21T10:22:50.334Z,28.20
2018-05-21T10:25:17.895Z,28.00
2018-05-21T10:27:45.437Z,27.30
2018-05-21T10:30:12.977Z,27.10
2018-05-21T10:32:40.516Z,27.20
2018-05-21T10:35:08.091Z,27.30
2018-05-21T10:37:35.653Z,27.10
2018-05-21T10:40:03.214Z,26.60
2018-05-21T10:42:30.750Z,25.50
2018-05-21T10:44:58.314Z,25.00
2018-05-21T10:47:26.600Z,25.00
2018-05-21T10:49:54.141Z,25.00
2018-05-21T10:52:21.700Z,24.70
2018-05-21T10:54:49.248Z,24.80
2018-05-21T10:57:16.792Z,24.80
2018-05-21T10:59:44.330Z,24.60
2018-05-21T11:02:12.653Z,24.20
2018-05-21T11:04:40.248Z,24.10
2018-05-21T11:07:07.732Z,23.70
2018-05-21T11:09:35.287Z,23.60
2018-05-21T11:12:03.723Z,23.90
2018-05-21T11:14:31.207Z,23.90
2018-05-21T11:16:58.751Z,23.70
2018-05-21T11:19:26.289Z,24.00
2018-05-21T11:21:55.036Z,23.80
2018-05-21T11:24:22.586Z,23.40
2018-05-21T11:26:50.124Z,23.70
2018-05-21T11:29:18.428Z,24.00
2018-05-21T11:31:46.725Z,23.80
2018-05-21T11:34:15.029Z,23.90
2018-05-21T11:36:43.345Z,23.80
2018-05-21T11:39:10.917Z,23.80
2018-05-21T11:41:39.212Z,23.60
2018-05-21T11:44:07.532Z,23.60
2018-05-21T11:46:35.083Z,23.60
2018-05-21T11:49:02.637Z,23.60
2018-05-21T11:51:30.166Z,23.70
2018-05-21T11:53:58.482Z,23.70
2018-05-21T11:56:26.786Z,23.60
2018-05-21T11:58:55.098Z,23.50
2018-05-21T12:01:22.646Z,23.50
2018-05-21T12:03:50.190Z,23.60
2018-05-21T12:06:17.729Z,23.60
2018-05-21T12:08:45.264Z,23.50
2018-05-21T12:11:12.786Z,23.40
2018-05-21T12:13:41.211Z,23.50
2018-05-21T12:16:09.520Z,23.60
2018-05-21T12:18:37.081Z,23.60
2018-05-21T12:21:04.726Z,23.50
2018-05-21T12:23:32.250Z,23.60
2018-05-21T12:25:59.813Z,23.50
2018-05-21T12:28:27.352Z,23.40
2018-05-21T12:30:54.893Z,23.30
2018-05-21T12:33:22.441Z,23.30
2018-05-21T12:35:50.537Z,23.30
2018-05-21T12:38:18.068Z,23.40
2018-05-21T12:40:46.844Z,23.40
2018-05-21T12:43:14.490Z,23.40
2018-05-21T12:45:42.016Z,23.50
2018-05-21T12:48:09.545Z,23.60
2018-05-21T12:50:37.858Z,23.70
2018-05-21T12:53:05.410Z,23.70
2018-05-21T12:55:32.984Z,23.80
2018-05-21T12:58:01.441Z,24.00
2018-05-21T13:00:28.978Z,24.10
2018-05-21T13:02:56.519Z,24.30
2018-05-21T13:05:24.060Z,24.30
2018-05-21T13:07:51.638Z,24.40
2018-05-21T13:10:19.181Z,24.40
2018-05-21T13:12:46.716Z,24.20
2018-05-21T13:15:15.096Z,24.40
2018-05-21T13:17:43.331Z,24.50
2018-05-21T13:20:11.624Z,24.60
2018-05-21T13:22:39.928Z,24.60
2018-05-21T13:25:08.246Z,24.60
2018-05-21T13:27:35.820Z,24.70
2018-05-21T13:30:04.144Z,24.60
2018-05-21T13:32:31.692Z,24.60
2018-05-21T13:34:59.997Z,24.60
2018-05-21T13:37:28.294Z,24.00
2018-05-21T13:39:55.831Z,24.00
2018-05-21T13:42:23.355Z,24.10
2018-05-21T13:44:50.898Z,24.10
2018-05-21T13:47:19.198Z,24.10
2018-05-21T13:49:46.730Z,24.00
2018-05-21T13:52:14.327Z,24.30
2018-05-21T13:54:41.784Z,24.40
2018-05-21T13:57:09.314Z,24.40
2018-05-21T13:59:36.856Z,24.40
2018-05-21T14:02:04.436Z,24.50
2018-05-21T14:04:32.024Z,24.60
2018-05-21T14:06:59.564Z,24.60
2018-05-21T14:09:27.109Z,24.70
2018-05-21T14:11:55.393Z,24.90
2018-05-21T14:14:22.959Z,24.90
2018-05-21T14:16:50.503Z,25.00
2018-05-21T14:19:18.045Z,24.80
2018-05-21T14:21:45.578Z,24.80
2018-05-21T14:24:13.110Z,24.80
2018-05-21T14:26:40.644Z,24.50
2018-05-21T14:29:08.178Z,24.50
2018-05-21T14:31:35.711Z,24.50
2018-05-21T14:34:03.309Z,24.50
2018-05-21T14:36:30.853Z,24.70
2018-05-21T14:38:59.149Z,24.50
2018-05-21T14:41:26.685Z,24.50
2018-05-21T14:43:54.238Z,24.40
2018-05-21T14:46:21.813Z,24.40
2018-05-21T14:48:50.117Z,24.40
2018-05-21T14:51:18.411Z,24.50
2018-05-21T14:53:46.729Z,24.50
2018-05-21T14:56:15.030Z,24.50
2018-05-21T14:58:43.727Z,24.50
2018-05-21T15:01:11.256Z,24.40
2018-05-21T15:03:38.802Z,24.40
2018-05-21T15:06:07.136Z,24.30
2018-05-21T15:08:34.676Z,24.30
2018-05-21T15:11:02.249Z,24.30
2018-05-21T15:13:29.771Z,24.40
2018-05-21T15:15:57.322Z,24.40
2018-05-21T15:18:24.848Z,24.40
2018-05-21T15:20:52.401Z,24.40
2018-05-21T15:23:19.922Z,24.50
2018-05-21T15:25:47.461Z,24.60
2018-05-21T15:28:14.990Z,24.70
2018-05-21T15:30:42.531Z,24.70
2018-05-21T15:33:10.073Z,24.70
2018-05-21T15:35:37.693Z,24.70
2018-05-21T15:38:05.247Z,24.90
2018-05-21T15:40:32.801Z,25.00
2018-05-21T15:43:00.352Z,25.10
2018-05-21T15:45:28.656Z,25.10
2018-05-21T15:47:56.951Z,25.20
2018-05-21T15:50:25.257Z,25.40
2018-05-21T15:52:52.821Z,25.40
2018-05-21T15:55:20.362Z,25.50
2018-05-21T15:57:47.898Z,25.50
2018-05-21T16:00:15.449Z,25.50
2018-05-21T16:02:42.972Z,25.30
2018-05-21T16:05:10.508Z,25.20
2018-05-21T16:07:38.053Z,25.10
2018-05-21T16:10:06.376Z,24.90
2018-05-21T16:12:35.150Z,24.90
2018-05-21T16:15:02.797Z,24.80
2018-05-21T16:17:30.355Z,24.70
2018-05-21T16:19:57.887Z,24.60
2018-05-21T16:22:25.432Z,24.50
2018-05-21T16:24:52.957Z,24.30
2018-05-21T16:27:20.490Z,24.10
2018-05-21T16:29:48.034Z,23.80
2018-05-21T16:32:15.564Z,23.50
2018-05-21T16:34:43.098Z,23.30
2018-05-21T16:37:10.625Z,23.00
2018-05-21T16:39:38.166Z,22.70
2018-05-21T16:42:05.695Z,22.50
2018-05-21T16:44:33.264Z,22.40
2018-05-21T16:47:01.811Z,22.30
2018-05-21T16:49:29.349Z,22.20
2018-05-21T16:51:57.660Z,22.30
2018-05-21T16:54:25.967Z,22.30
2018-05-21T16:56:53.515Z,22.30
2018-05-21T16:59:21.101Z,22.40
2018-05-21T17:01:48.644Z,22.60
2018-05-21T17:04:16.159Z,22.80
2018-05-21T17:06:43.713Z,23.10
2018-05-21T17:09:11.238Z,23.30
2018-05-21T17:11:38.783Z,23.60
2018-05-21T17:14:06.330Z,23.90
2018-05-21T17:16:34.660Z,24.50
2018-05-21T17:19:02.496Z,24.50
2018-05-21T17:21:30.032Z,25.10
2018-05-21T17:23:57.566Z,25.50
2018-05-21T17:26:25.106Z,26.00
2018-05-21T17:28:52.657Z,26.20
2018-05-21T17:31:20.219Z,26.10
2018-05-21T17:33:47.762Z,25.90
2018-05-21T17:36:15.314Z,25.70
2018-05-21T17:38:42.835Z,25.30
2018-05-21T17:41:10.390Z,25.00
2018-05-21T17:43:37.966Z,24.70
2018-05-21T17:46:06.278Z,24.70
2018-05-21T17:48:33.865Z,24.60
2018-05-21T17:51:01.429Z,24.80
2018-05-21T17:53:28.973Z,24.70
2018-05-21T17:55:56.584Z,24.60
2018-05-21T17:58:24.045Z,24.80
2018-05-21T18:00:51.612Z,24.80
2018-05-21T18:03:19.205Z,24.40
2018-05-21T18:05:47.468Z,23.40
2018-05-21T18:08:15.817Z,23.00
2018-05-21T18:10:44.077Z,22.60
2018-05-21T18:13:11.658Z,22.60
2018-05-21T18:15:39.957Z,22.20
2018-05-21T18:18:08.825Z,21.90
2018-05-21T18:20:36.505Z,21.90
2018-05-21T18:23:04.098Z,21.70
2018-05-21T18:25:31.753Z,21.50
2018-05-21T18:27:59.288Z,21.50
2018-05-21T18:30:26.842Z,21.40
2018-05-21T18:32:54.369Z,21.40
2018-05-21T18:35:22.697Z,21.50
2018-05-21T18:37:50.250Z,21.50
2018-05-21T18:40:17.791Z,21.50
2018-05-21T18:42:45.322Z,21.50
2018-05-21T18:45:12.866Z,21.40
2018-05-21T18:47:40.532Z,21.40
2018-05-21T18:50:08.101Z,21.40
2018-05-21T18:52:35.638Z,21.30
2018-05-21T18:55:03.192Z,21.30
2018-05-21T18:57:30.742Z,21.20
2018-05-21T18:59:58.277Z,21.00
2018-05-21T19:02:25.821Z,20.80
2018-05-21T19:04:53.357Z,20.60
2018-05-21T19:07:20.922Z,20.30
2018-05-21T19:09:48.445Z,20.00
2018-05-21T19:12:16.749Z,19.60
2018-05-21T19:14:45.049Z,19.40
2018-05-21T19:17:13.345Z,19.10
2018-05-21T19:19:40.893Z,19.10
2018-05-21T19:22:08.442Z,19.00
2018-05-21T19:24:35.974Z,18.80
2018-05-21T19:27:03.540Z,18.70
2018-05-21T19:29:31.060Z,18.50
2018-05-21T19:31:58.594Z,18.40
2018-05-21T19:34:26.124Z,18.30
2018-05-21T19:36:53.657Z,18.10
2018-05-21T19:39:21.212Z,18.00
2018-05-21T19:41:49.517Z,17.70
2018-05-21T19:44:17.816Z,17.60
2018-05-21T19:46:46.116Z,17.50
2018-05-21T19:49:14.418Z,17.40
2018-05-21T19:51:42.726Z,17.30
2018-05-21T19:54:11.025Z,17.30
2018-05-21T19:56:39.341Z,17.20
2018-05-21T19:59:06.881Z,17.20
2018-05-21T20:01:34.425Z,17.10
2018-05-21T20:04:02.023Z,17.00
2018-05-21T20:06:29.556Z,16.90
2018-05-21T20:08:57.882Z,16.80
2018-05-21T20:11:25.413Z,16.70
2018-05-21T20:13:52.964Z,16.70
2018-05-21T20:16:20.533Z,16.60
2018-05-21T20:18:48.068Z,16.50
2018-05-21T20:21:15.628Z,16.50
2018-05-21T20:23:43.175Z,16.40
2018-05-21T20:26:11.489Z,16.40
2018-05-21T20:28:39.026Z,16.40
2018-05-21T20:31:06.573Z,16.40
2018-05-21T20:33:35.017Z,16.30
2018-05-21T20:36:02.585Z,16.20
2018-05-21T20:38:30.115Z,16.10
2018-05-21T20:40:57.655Z,16.00
2018-05-21T20:43:25.185Z,16.00
2018-05-21T20:45:52.728Z,15.90
2018-05-21T20:48:20.306Z,15.80
2018-05-21T20:50:47.832Z,15.70
2018-05-21T20:53:16.143Z,15.60
2018-05-21T20:55:43.677Z,15.60
2018-05-21T20:58:11.221Z,15.60
2018-05-21T21:00:38.762Z,15.60
2018-05-21T21:03:06.312Z,15.60
2018-05-21T21:05:33.867Z,15.50
2018-05-21T21:08:01.415Z,15.50
2018-05-21T21:10:28.954Z,15.50
2018-05-21T21:12:56.488Z,15.50
2018-05-21T21:15:24.034Z,15.50
2018-05-21T21:17:51.597Z,15.50
2018-05-21T21:20:19.150Z,15.50
2018-05-21T21:22:47.440Z,15.50
2018-05-21T21:25:14.974Z,15.50
2018-05-21T21:27:42.503Z,15.60
2018-05-21T21:30:10.059Z,15.60
2018-05-21T21:32:37.643Z,15.60
2018-05-21T21:35:05.910Z,15.60
2018-05-21T21:37:33.479Z,15.60
2018-05-21T21:40:01.827Z,15.60
2018-05-21T21:42:29.370Z,15.60
2018-05-21T21:44:56.904Z,15.60
2018-05-21T21:47:24.430Z,15.70
2018-05-21T21:49:52.757Z,15.70
2018-05-21T21:52:20.313Z,15.60
2018-05-21T21:54:48.611Z,15.70
2018-05-21T21:57:16.923Z,15.70
2018-05-21T21:59:45.222Z,15.70
2018-05-21T22:02:13.536Z,15.70
2018-05-21T22:04:41.850Z,15.70
2018-05-21T22:07:09.379Z,15.70
2018-05-21T22:09:36.925Z,15.70
2018-05-21T22:12:04.501Z,15.70
2018-05-21T22:14:32.085Z,15.70
2018-05-21T22:16:59.637Z,15.70
2018-05-21T22:19:27.159Z,15.70
2018-05-21T22:21:54.701Z,15.70
2018-05-21T22:24:22.251Z,15.70
2018-05-21T22:26:49.782Z,15.70
2018-05-21T22:29:18.076Z,15.80
2018-05-21T22:31:46.401Z,15.80
2018-05-21T22:34:14.694Z,15.80
2018-05-21T22:36:43.727Z,15.80
2018-05-21T22:39:12.109Z,15.70
2018-05-21T22:41:40.436Z,15.70
2018-05-21T22:44:08.052Z,15.70
2018-05-21T22:46:35.573Z,15.70
2018-05-21T22:49:03.116Z,15.70
2018-05-21T22:51:30.663Z,15.70
2018-05-21T22:53:58.270Z,15.60
2018-05-21T22:56:25.738Z,15.60
2018-05-21T22:58:53.272Z,15.60
2018-05-21T23:01:20.829Z,15.60
2018-05-21T23:03:48.359Z,15.60
2018-05-21T23:06:15.887Z,15.60
2018-05-21T23:08:43.429Z,15.60
2018-05-21T23:11:11.733Z,15.60
2018-05-21T23:13:39.273Z,15.50
2018-05-21T23:16:06.820Z,15.50
2018-05-21T23:18:34.372Z,15.50
2018-05-21T23:21:01.985Z,15.50
2018-05-21T23:23:29.539Z,15.50
2018-05-21T23:25:57.075Z,15.50
2018-05-21T23:28:24.612Z,15.50
2018-05-21T23:30:52.161Z,15.50
2018-05-21T23:33:19.697Z,15.50
2018-05-21T23:35:47.992Z,15.50
2018-05-21T23:38:16.295Z,15.50
2018-05-21T23:40:43.817Z,15.50
2018-05-21T23:43:11.363Z,15.40
2018-05-21T23:45:39.649Z,15.40
2018-05-21T23:48:07.203Z,15.40
2018-05-21T23:50:34.756Z,15.40
2018-05-21T23:53:02.330Z,15.40
2018-05-21T23:55:30.631Z,15.40
2018-05-21T23:57:58.160Z,15.40
